Station: Tindal  

  Atmospheric Gas Attenuation - ITU Rec 676-11   ----------------- dB/100km -----------------
Date Time Temp RH % AH g/m3 Dew Point Wind Direction Speed kph Gust kph Barometer mB Rainfall Since 9am 24GHz 47GHz 76GHz 122GHz 134GHz 241GHz
11/05 03:10 25 73 16.8 19.8 11 13 1013.1 0 36.3 36.0 67.1 177.3 191.7 665.7
11/05 03:00 25.1 72 16.67 19.7 11 17 1013.1 0 36.0 35.7 66.4 175.5 189.6 658.2
11/05 02:50 25 73 16.8 19.8 11 13 1013.3 0 36.3 36.0 67.1 177.3 191.7 665.8
11/05 02:40 24.7 74 16.75 19.8 9 13 1013.3 0 36.2 36.0 67.1 177.4 191.8 665.9
11/05 02:30 24.6 74 16.65 19.7 9 13 1013.2 0 36.0 35.9 66.8 176.4 190.6 661.6
11/05 02:20 24.5 74 16.56 19.6 7 7 1013.5 0 35.8 35.8 66.5 175.6 189.5 658.0
11/05 02:10 24.5 73 16.34 19.3 9 11 1013.5 0 35.4 35.4 65.5 173.0 186.3 646.9
11/05 02:00 24.4 73 16.25 19.2 9 11 1013.5 0 35.2 35.3 65.2 172.2 185.3 643.2
11/05 01:50 24.2 74 16.28 19.3 7 9 1013.7 0 35.3 35.4 65.5 173.0 186.2 646.5
11/05 01:40 24.2 74 16.28 19.3 7 7 1013.9 0 35.3 35.4 65.5 173.0 186.3 646.5
11/05 01:30 24.3 73 16.15 19.1 7 9 1013.8 0 35.0 35.1 64.8 171.3 184.1 639.1
11/05 01:20 24.4 71 15.8 18.8 9 9 1014 0 34.2 34.5 63.2 167.0 178.9 620.8
11/05 01:10 24.4 71 15.8 18.8 7 9 1014.1 0 34.2 34.5 63.2 167.0 178.9 620.8
11/05 01:00 24.5 70 15.67 18.7 7 9 1014.3 0 33.9 34.2 62.6 165.3 176.8 613.7
11/05 00:50 24.4 70 15.58 18.6 7 9 1014.4 0 33.8 34.1 62.3 164.5 175.8 610.0
11/05 00:40 24.4 70 15.58 18.6 9 9 1014.5 0 33.8 34.1 62.3 164.5 175.8 610.1
11/05 00:30 24.2 71 15.62 18.6 7 11 1014.7 0 33.9 34.3 62.6 165.4 176.8 613.7
11/05 00:20 24.2 72 15.84 18.8 7 9 1014.8 0 34.3 34.7 63.6 168.0 180.0 624.8
11/05 00:10 24.2 71 15.62 18.6 9 9 1014.8 0 33.9 34.3 62.6 165.4 176.9 613.8
11/05 00:00 24.2 70 15.4 18.4 7 9 1014.8 0 33.4 33.9 61.7 162.9 173.7 602.9
10/05 23:50 24.1 73 15.97 19 6 7 1014.7 0 34.6 34.9 64.2 169.7 182.1 632.1
10/05 23:40 23.9 72 15.58 18.5 9 9 1014.7 0 33.8 34.3 62.7 165.6 177.0 614.1
10/05 23:30 23.9 72 15.58 18.5 9 9 1014.8 0 33.8 34.3 62.7 165.6 177.0 614.2
10/05 23:20 23.6 74 15.74 18.7 7 9 1014.7 0 34.2 34.7 63.6 168.1 180.0 624.6
10/05 23:10 24.1 70 15.32 18.3 11 11 1014.8 0 33.2 33.8 61.4 162.2 172.8 599.7
10/05 23:00 24.4 70 15.58 18.6 9 9 1014.9 0 33.8 34.1 62.3 164.5 175.8 610.3
10/05 22:50 24.4 70 15.58 18.6 7 9 1014.9 0 33.8 34.1 62.3 164.5 175.8 610.3
10/05 22:40 24.3 68 15.05 18.2 7 9 1014.9 0 32.6 33.2 60.1 158.7 168.6 584.9
10/05 22:30 24.3 70 15.49 18.5 7 9 1014.9 0 33.6 34.0 62.0 163.7 174.8 606.6
10/05 22:20 24.6 68 15.3 18.3 9 9 1014.9 0 33.1 33.6 60.9 160.9 171.4 594.9
10/05 22:10 25 66 15.19 18.4 7 9 1014.9 0 32.9 33.2 60.1 158.8 169.0 586.4
10/05 22:00 24.7 68 15.39 18.4 9 9 1014.9 0 33.3 33.7 61.2 161.7 172.5 598.5
10/05 21:50 24.9 66 15.11 18.1 9 9 1015 0 32.7 33.1 59.9 158.1 168.1 583.4
10/05 21:40 25.3 64 14.98 18.2 9 9 1015 0 32.4 32.7 59.0 155.9 165.4 574.1
10/05 21:30 25.6 63 15 18 9 11 1015.1 0 32.4 32.7 58.9 155.5 165.1 572.9
10/05 21:20 25.8 63 15.17 18.2 7 9 1015 0 32.8 32.9 59.4 157.0 167.0 579.5
10/05 21:10 25.9 63 15.25 18.3 9 9 1015 0 32.9 33.0 59.7 157.7 167.8 582.6
10/05 21:00 25.8 63 15.17 18.2 9 9 1014.9 0 32.8 32.9 59.4 157.0 166.9 579.5
10/05 20:50 26.1 61 14.93 18 11 11 1014.9 0 32.2 32.4 58.2 153.7 163.0 565.8
10/05 20:40 26.1 61 14.93 18 9 9 1014.8 0 32.2 32.4 58.2 153.7 163.0 565.7
10/05 20:30 26.1 61 14.93 18 9 11 1014.7 0 32.2 32.4 58.2 153.7 163.0 565.7
10/05 20:20 26.1 61 14.93 18 9 9 1014.6 0 32.2 32.3 58.2 153.7 163.0 565.6
10/05 20:10 26.3 60 14.85 17.9 7 9 1014.5 0 32.1 32.1 57.7 152.4 161.4 560.4
10/05 20:00 26.5 58 14.52 17.6 9 11 1014.4 0 31.4 31.5 56.2 148.3 156.6 543.4
10/05 19:50 26.6 58 14.6 17.7 9 9 1014.3 0 31.5 31.6 56.4 149.0 157.4 546.4
10/05 19:40 26.7 57 14.43 17.7 9 9 1014.2 0 31.1 31.3 55.7 147.0 154.9 537.7
10/05 19:30 26.8 57 14.51 17.6 9 11 1013.9 0 31.3 31.4 55.9 147.6 155.8 540.6
10/05 19:20 27 56 14.41 17.5 9 11 1013.9 0 31.1 31.1 55.4 146.2 154.0 534.6
10/05 19:10 27.1 55 14.23 17.3 11 11 1014 0 30.7 30.8 54.6 144.0 151.5 525.7
10/05 19:00 27.3 54 14.13 17.2 13 17 1013.8 0 30.5 30.6 54.0 142.6 149.8 519.7
10/05 18:50 27.3 54 14.13 17.2 15 17 1013.7 0 30.5 30.6 54.0 142.6 149.7 519.6
10/05 18:40 27.4 54 14.21 17.3 17 19 1013.5 0 30.6 30.7 54.3 143.2 150.6 522.6
10/05 18:30 27.5 54 14.29 17.4 15 22 1013.3 0 30.8 30.7 54.5 143.9 151.4 525.5
10/05 18:20 27.7 52 13.91 17.2 15 17 1013.3 0 30.0 30.1 52.9 139.5 146.1 506.9
10/05 18:10 27.8 52 13.99 17.3 13 15 1013.2 0 30.1 30.1 53.1 140.1 146.9 509.8
10/05 18:00 28.1 53 14.49 17.6 13 19 1013 0 31.2 30.8 54.9 144.9 152.8 530.5
10/05 17:50 28.4 52 14.46 17.6 15 19 1012.9 0 31.1 30.7 54.5 144.0 151.8 527.1
10/05 17:40 28.7 51 14.41 17.6 19 20 1012.7 0 31.0 30.5 54.1 142.9 150.6 522.7
10/05 17:30 28.9 49 14 17.4 20 26 1012.5 0 30.1 29.8 52.4 138.2 144.9 503.0
10/05 17:20 29.6 49 14.54 17.8 19 26 1012.5 0 31.2 30.4 54.0 142.6 150.5 522.5
10/05 17:10 29.4 47 13.8 17.2 22 24 1012.3 0 29.6 29.3 51.3 135.3 141.4 490.9
10/05 17:00 29.9 48 14.48 17.7 17 26 1012.2 0 31.0 30.2 53.6 141.4 149.1 517.8
10/05 16:50 29.7 47 14.03 17.2 19 22 1012 0 30.1 29.5 51.9 137.1 143.8 499.0
10/05 16:40 29.5 47 13.87 17.3 17 20 1011.9 0 29.8 29.3 51.5 135.8 142.1 493.2
10/05 16:30 30 47 14.26 17.5 17 28 1011.9 0 30.6 29.8 52.6 138.9 146.1 507.3
10/05 16:20 30.1 46 14.03 17.2 15 17 1011.8 0 30.1 29.4 51.7 136.4 143.0 496.5
10/05 16:10 30.5 44 13.71 17.2 22 24 1011.8 0 29.4 28.8 50.2 132.5 138.3 480.1
10/05 16:00 29.9 45 13.58 17 26 35 1011.8 0 29.2 28.8 50.1 132.1 137.7 478.1
10/05 15:50 31.2 42 13.59 17.1 22 28 1011.7 0 29.1 28.4 49.3 130.1 135.6 470.7
10/05 15:40 30.4 44 13.64 16.8 26 32 1011.7 0 29.2 28.7 50.0 131.9 137.6 477.6
10/05 15:30 30.8 43 13.62 16.8 22 33 1011.6 0 29.2 28.5 49.7 131.1 136.6 474.3
10/05 15:20 30.9 42 13.37 16.5 24 30 1011.6 0 28.6 28.1 48.7 128.4 133.4 463.1
10/05 15:10 30.8 42 13.3 16.4 26 32 1011.7 0 28.5 28.0 48.5 127.9 132.7 460.7
10/05 15:00 30.6 43 13.47 16.6 24 35 1011.7 0 28.9 28.4 49.2 129.9 135.2 469.1
10/05 14:50 30.5 43 13.4 16.5 24 30 1011.8 0 28.7 28.3 49.0 129.4 134.5 466.7
10/05 14:40 30.6 41 12.85 16.2 22 30 1011.9 0 27.6 27.4 46.9 123.8 127.6 442.8
10/05 14:30 30.7 42 13.23 16.3 20 32 1012 0 28.4 28.0 48.3 127.4 132.1 458.4
10/05 14:20 30.4 41 12.71 15.7 19 22 1012.1 0 27.3 27.3 46.6 122.7 126.3 438.1
10/05 14:10 31 42 13.44 16.6 17 28 1012.1 0 28.8 28.2 48.9 129.0 134.2 465.6
10/05 14:00 30.6 40 12.53 15.8 24 33 1012.3 0 26.9 27.0 45.8 120.7 123.8 429.6
10/05 13:50 30.3 42 12.95 16 22 28 1012.6 0 27.8 27.7 47.5 125.3 129.4 449.0
10/05 13:40 30.6 41 12.85 16.2 17 20 1012.7 0 27.6 27.5 47.0 123.9 127.7 443.1
10/05 13:30 29.7 42 12.53 15.4 22 32 1012.8 0 27.0 27.3 46.3 122.1 125.3 434.6
10/05 13:20 29.7 42 12.53 15.4 24 26 1013 0 27.0 27.3 46.3 122.1 125.3 434.6
10/05 13:10 29.8 42 12.6 15.5 17 20 1013.1 0 27.1 27.4 46.5 122.7 126.0 437.1
10/05 13:00 29.8 43 12.9 15.9 22 33 1013.2 0 27.7 27.8 47.7 125.7 129.7 449.9
10/05 12:50 29.1 42 12.13 14.9 20 24 1013.6 0 26.2 26.9 45.2 119.2 121.5 421.1
10/05 12:40 29.4 43 12.62 15.5 24 32 1013.7 0 27.2 27.5 46.9 123.6 127.0 440.3
10/05 12:30 29.3 42 12.26 15.1 24 35 1013.7 0 26.4 27.0 45.6 120.2 122.8 425.6
10/05 12:20 28.7 42 11.87 14.5 26 30 1013.9 0 25.7 26.6 44.5 117.3 119.0 412.4
10/05 12:10 28.9 42 12 14.7 30 37 1014 0 25.9 26.8 44.9 118.2 120.3 416.8
10/05 12:00 28.7 43 12.15 14.9 26 39 1014 0 26.3 27.0 45.5 120.0 122.4 424.2
10/05 11:50 28.5 41 11.46 14.3 28 32 1014.3 0 24.8 26.1 43.1 113.6 114.4 396.3
10/05 11:40 28.6 43 12.09 14.8 28 33 1014.5 0 26.1 27.0 45.4 119.6 121.9 422.4
10/05 11:30 28 42 11.42 13.9 28 41 1014.6 0 24.8 26.2 43.3 113.9 114.7 397.2
10/05 11:20 28.2 44 12.1 14.8 30 32 1014.7 0 26.2 27.1 45.7 120.3 122.6 425.0
10/05 11:10 28.2 44 12.1 14.8 24 35 1015 0 26.2 27.2 45.7 120.4 122.6 425.1
10/05 11:00 27.7 45 12.04 14.7 24 33 1015.1 0 26.1 27.2 45.8 120.5 122.7 425.2
10/05 10:50 27.1 44 11.39 13.8 26 32 1015.3 0 24.8 26.4 43.7 115.0 115.7 400.6
10/05 10:40 27.2 42 10.93 13.2 19 26 1015.4 0 23.8 25.7 42.0 110.4 110.0 380.8

Last Refresh: 11-May-2026 03:21:20

Bureau of Meteorology